Time;durP1;ratioP1;P1;durP2;ratioP2;P2;SDS_P1;SDS_P2;PMS_P1;PMS_P2;Temp;Humidity;BMP_temperature;BMP_pressure;BME280_temperature;BME280_humidity;BME280_pressure;Samples;Min_cycle;Max_cycle;Signal;HPM_P1;HPM_P2
2021/01/07 00:00:40;;;;;;;;;;;12.30;64.60;;;;;;2092373;28;1035;-53
2021/01/07 00:01:59;;;;;;;;;;;12.30;64.50;;;;;;2093101;28;1058;-53
2021/01/07 00:03:19;;;;;;;;;;;12.30;64.50;;;;;;2095243;28;1333;-53
2021/01/07 00:04:38;;;;;;;;;;;12.30;64.80;;;;;;2089678;28;772;-53
2021/01/07 00:05:57;;;;;;;;;;;12.30;64.60;;;;;;2095261;28;745;-53
2021/01/07 00:07:16;;;;;;;;;;;12.20;64.70;;;;;;2089275;28;1301;-54
2021/01/07 00:08:36;;;;;;;;;;;12.30;64.90;;;;;;2093511;28;1957;-53
2021/01/07 00:09:56;;;;;;;;;;;12.40;65.00;;;;;;2098618;28;795;-54
2021/01/07 00:11:15;;;;;;;;;;;12.30;64.80;;;;;;2098359;28;761;-54
2021/01/07 00:12:34;;;;;;;;;;;12.20;65.00;;;;;;2089694;28;720;-54
2021/01/07 00:13:53;;;;;;;;;;;12.20;65.50;;;;;;2095001;28;743;-54
2021/01/07 00:15:12;;;;;;;;;;;12.20;65.60;;;;;;2097481;28;724;-54
2021/01/07 00:16:31;;;;;;;;;;;12.20;65.00;;;;;;2098410;28;736;-51
2021/01/07 00:17:51;;;;;;;;;;;12.20;65.00;;;;;;2098020;28;1310;-52
2021/01/07 00:19:10;;;;;;;;;;;12.20;65.10;;;;;;2098360;28;724;-53
2021/01/07 00:20:31;;;;;;;;;;;12.20;65.10;;;;;;2089665;28;713;-52
2021/01/07 00:21:50;;;;;;;;;;;12.20;65.30;;;;;;2103045;28;771;-53
2021/01/07 00:23:09;;;;;;;;;;;12.20;65.10;;;;;;2101503;28;725;-54
2021/01/07 00:24:28;;;;;;;;;;;12.20;65.30;;;;;;2089693;28;723;-54
2021/01/07 00:25:49;;;;;;;;;;;12.20;65.20;;;;;;2102794;28;840;-54
2021/01/07 00:27:07;;;;;;;;;;;12.20;65.30;;;;;;2084340;28;737;-54
2021/01/07 00:28:27;;;;;;;;;;;12.20;65.40;;;;;;2086137;28;765;-55
2021/01/07 00:29:46;;;;;;;;;;;12.20;65.40;;;;;;2094928;28;737;-52
2021/01/07 00:31:05;;;;;;;;;;;12.20;65.50;;;;;;2084039;28;992;-51
2021/01/07 00:32:24;;;;;;;;;;;12.20;65.50;;;;;;2086567;28;869;-53
2021/01/07 00:33:44;;;;;;;;;;;12.20;65.50;;;;;;2098217;28;742;-53
2021/01/07 00:35:03;;;;;;;;;;;12.20;65.50;;;;;;2097614;28;800;-52
2021/01/07 00:36:22;;;;;;;;;;;12.10;65.50;;;;;;2098260;28;719;-53
2021/01/07 00:37:41;;;;;;;;;;;12.20;65.70;;;;;;2098325;28;1451;-54
2021/01/07 00:39:01;;;;;;;;;;;12.10;65.60;;;;;;2098495;28;778;-53
2021/01/07 00:40:20;;;;;;;;;;;12.20;65.60;;;;;;2089339;28;731;-53
2021/01/07 00:41:39;;;;;;;;;;;12.20;65.70;;;;;;2095061;28;717;-54
2021/01/07 00:42:59;;;;;;;;;;;12.10;65.90;;;;;;2089461;28;730;-53
2021/01/07 00:44:18;;;;;;;;;;;12.10;65.80;;;;;;2094899;28;748;-53
2021/01/07 00:45:37;;;;;;;;;;;12.20;66.00;;;;;;2097372;28;739;-52
2021/01/07 00:46:56;;;;;;;;;;;12.10;65.90;;;;;;2089303;28;818;-53
2021/01/07 00:48:15;;;;;;;;;;;12.10;66.70;;;;;;2102541;28;1391;-52
2021/01/07 00:49:35;;;;;;;;;;;12.10;66.10;;;;;;2092492;28;752;-53
2021/01/07 00:50:54;;;;;;;;;;;12.10;66.10;;;;;;2094399;28;756;-51
2021/01/07 00:52:13;;;;;;;;;;;12.10;66.20;;;;;;2089607;28;709;-52
2021/01/07 00:53:33;;;;;;;;;;;12.10;66.10;;;;;;2085737;28;795;-53
2021/01/07 00:54:52;;;;;;;;;;;12.10;66.10;;;;;;2101998;28;741;-53
2021/01/07 00:56:14;;;;;;;;;;;12.10;66.20;;;;;;2092173;28;748;-54
2021/01/07 00:57:36;;;;;;;;;;;12.10;66.40;;;;;;2089076;28;1451;-53
2021/01/07 00:58:55;;;;;;;;;;;12.10;66.40;;;;;;2102530;28;803;-53
2021/01/07 01:00:20;;;;;;;;;;;12.10;66.50;;;;;;2097370;28;733;-53
2021/01/07 01:01:43;;;;;;;;;;;12.10;66.40;;;;;;2095970;28;939;-53
2021/01/07 01:03:03;;;;;;;;;;;12.10;66.40;;;;;;2077415;28;1021;-52
2021/01/07 01:04:22;;;;;;;;;;;12.10;66.50;;;;;;2091465;28;701;-53
2021/01/07 01:05:41;;;;;;;;;;;12.10;66.40;;;;;;2080487;28;952;-52
2021/01/07 01:07:00;;;;;;;;;;;12.10;67.20;;;;;;2091353;28;773;-53
2021/01/07 01:08:19;;;;;;;;;;;12.00;66.50;;;;;;2097903;28;1435;-52
2021/01/07 01:09:38;;;;;;;;;;;12.00;66.70;;;;;;2097730;28;768;-52
2021/01/07 01:10:59;;;;;;;;;;;12.00;66.70;;;;;;2097944;28;832;-54
2021/01/07 01:12:18;;;;;;;;;;;12.10;66.70;;;;;;2098077;28;801;-54
2021/01/07 01:13:37;;;;;;;;;;;12.10;66.70;;;;;;2088999;28;756;-53
2021/01/07 01:14:56;;;;;;;;;;;12.00;67.50;;;;;;2093901;28;734;-52
2021/01/07 01:16:16;;;;;;;;;;;12.10;66.70;;;;;;2098063;28;712;-52
2021/01/07 01:17:35;;;;;;;;;;;12.00;66.70;;;;;;2088930;28;1352;-51
2021/01/07 01:18:55;;;;;;;;;;;12.00;66.70;;;;;;2094624;28;703;-53
2021/01/07 01:20:14;;;;;;;;;;;12.00;66.70;;;;;;2089013;28;766;-53
2021/01/07 01:21:33;;;;;;;;;;;12.00;66.80;;;;;;2094456;28;719;-52
2021/01/07 01:22:52;;;;;;;;;;;12.00;67.60;;;;;;2098189;28;709;-53
2021/01/07 01:24:11;;;;;;;;;;;12.00;67.70;;;;;;2089005;28;777;-52
2021/01/07 01:25:31;;;;;;;;;;;12.00;67.70;;;;;;2093699;28;736;-52
2021/01/07 01:26:54;;;;;;;;;;;12.00;67.20;;;;;;2098106;28;728;-52
2021/01/07 01:28:13;;;;;;;;;;;12.00;67.10;;;;;;2097848;28;1381;-52
2021/01/07 01:29:32;;;;;;;;;;;12.00;67.00;;;;;;2097042;28;1913;-52
2021/01/07 01:30:52;;;;;;;;;;;12.00;67.20;;;;;;2088612;28;1007;-52
2021/01/07 01:32:11;;;;;;;;;;;12.00;67.10;;;;;;2082524;28;1020;-53
2021/01/07 01:33:30;;;;;;;;;;;12.00;67.10;;;;;;2088780;28;739;-52
2021/01/07 01:34:50;;;;;;;;;;;12.00;67.10;;;;;;2093680;28;743;-52
2021/01/07 01:36:10;;;;;;;;;;;12.00;67.40;;;;;;2097837;28;1021;-52
2021/01/07 01:37:29;;;;;;;;;;;12.00;67.80;;;;;;2097499;28;1349;-53
2021/01/07 01:38:48;;;;;;;;;;;12.00;67.30;;;;;;2088998;28;716;-52
2021/01/07 01:40:08;;;;;;;;;;;12.00;67.30;;;;;;2088947;28;732;-52
2021/01/07 01:41:27;;;;;;;;;;;12.00;67.30;;;;;;2094490;28;733;-54
2021/01/07 01:42:47;;;;;;;;;;;12.00;67.20;;;;;;2088796;28;751;-52
2021/01/07 01:44:07;;;;;;;;;;;12.00;67.40;;;;;;2094308;28;704;-53
2021/01/07 01:45:26;;;;;;;;;;;12.00;67.50;;;;;;2096986;28;721;-53
2021/01/07 01:46:46;;;;;;;;;;;11.90;67.30;;;;;;2088891;28;716;-52
2021/01/07 01:48:05;;;;;;;;;;;12.00;67.40;;;;;;2101974;28;1333;-52
2021/01/07 01:49:24;;;;;;;;;;;11.90;67.30;;;;;;2091573;28;1902;-55
2021/01/07 01:50:43;;;;;;;;;;;12.00;67.60;;;;;;2094200;28;775;-53
2021/01/07 01:52:02;;;;;;;;;;;11.90;68.30;;;;;;2080586;28;708;-54
2021/01/07 01:53:22;;;;;;;;;;;11.90;67.70;;;;;;2082406;28;725;-54
2021/01/07 01:54:42;;;;;;;;;;;11.90;67.30;;;;;;2093853;28;732;-53
2021/01/07 01:56:02;;;;;;;;;;;11.90;68.30;;;;;;2088986;28;781;-53
2021/01/07 01:57:21;;;;;;;;;;;11.90;67.50;;;;;;2102186;28;1357;-56
2021/01/07 01:58:41;;;;;;;;;;;11.90;67.70;;;;;;2099921;28;739;-55
2021/01/07 02:00:00;;;;;;;;;;;11.90;67.60;;;;;;2086981;28;978;-54
2021/01/07 02:01:19;;;;;;;;;;;11.90;67.70;;;;;;2092402;28;1306;-54
2021/01/07 02:02:39;;;;;;;;;;;11.90;67.60;;;;;;2091804;28;1533;-56
2021/01/07 02:03:58;;;;;;;;;;;11.90;67.60;;;;;;2097632;28;745;-51
2021/01/07 02:05:17;;;;;;;;;;;11.90;67.80;;;;;;2088371;28;760;-53
2021/01/07 02:06:36;;;;;;;;;;;11.90;67.90;;;;;;2085636;28;782;-53
2021/01/07 02:07:55;;;;;;;;;;;11.90;67.90;;;;;;2102154;28;1368;-53
2021/01/07 02:09:15;;;;;;;;;;;11.90;68.50;;;;;;2084528;28;1914;-53
2021/01/07 02:10:34;;;;;;;;;;;11.90;68.80;;;;;;2084462;28;875;-52
2021/01/07 02:11:53;;;;;;;;;;;11.90;68.80;;;;;;2080462;28;749;-54
2021/01/07 02:13:12;;;;;;;;;;;11.90;67.90;;;;;;2086189;28;788;-53
2021/01/07 02:14:31;;;;;;;;;;;11.90;68.00;;;;;;2080586;28;740;-56
2021/01/07 02:15:51;;;;;;;;;;;11.90;68.10;;;;;;2082283;28;738;-52
2021/01/07 02:17:10;;;;;;;;;;;11.90;68.00;;;;;;2085172;28;721;-53
2021/01/07 02:18:29;;;;;;;;;;;11.90;68.10;;;;;;2085538;28;724;-53
2021/01/07 02:19:48;;;;;;;;;;;11.80;68.00;;;;;;2088482;28;748;-53
2021/01/07 02:21:07;;;;;;;;;;;11.90;68.10;;;;;;2089575;28;696;-51
2021/01/07 02:22:27;;;;;;;;;;;11.80;68.10;;;;;;2089459;28;716;-52
2021/01/07 02:23:52;;;;;;;;;;;11.80;68.00;;;;;;2089376;28;716;-52
2021/01/07 02:25:12;;;;;;;;;;;11.80;68.00;;;;;;2071794;28;738;-54
2021/01/07 02:26:31;;;;;;;;;;;11.80;68.10;;;;;;2082694;28;748;-52
2021/01/07 02:27:50;;;;;;;;;;;11.80;68.20;;;;;;2096794;28;1351;-55
2021/01/07 02:29:09;;;;;;;;;;;11.80;68.60;;;;;;2083330;28;1977;-56
2021/01/07 02:30:28;;;;;;;;;;;11.80;68.40;;;;;;2094174;28;1002;-53
2021/01/07 02:31:48;;;;;;;;;;;11.80;68.50;;;;;;2097307;28;1159;-52
2021/01/07 02:33:07;;;;;;;;;;;11.80;68.40;;;;;;2091048;28;1170;-53
2021/01/07 02:34:26;;;;;;;;;;;11.80;68.50;;;;;;2076771;28;733;-53
2021/01/07 02:35:45;;;;;;;;;;;11.80;68.30;;;;;;2094682;28;729;-55
2021/01/07 02:37:05;;;;;;;;;;;11.80;68.20;;;;;;2095652;28;841;-53
2021/01/07 02:38:24;;;;;;;;;;;11.80;69.00;;;;;;2086370;28;832;-53
2021/01/07 02:39:43;;;;;;;;;;;11.80;68.60;;;;;;2089652;28;754;-55
2021/01/07 02:41:02;;;;;;;;;;;11.80;68.60;;;;;;2094214;28;970;-54
2021/01/07 02:42:24;;;;;;;;;;;11.80;68.70;;;;;;2083719;28;730;-57
2021/01/07 02:43:43;;;;;;;;;;;11.80;68.60;;;;;;2090951;28;753;-53
2021/01/07 02:45:03;;;;;;;;;;;11.80;68.70;;;;;;2093054;28;743;-57
2021/01/07 02:46:22;;;;;;;;;;;11.80;68.60;;;;;;2084529;28;745;-57
2021/01/07 02:47:41;;;;;;;;;;;11.80;68.70;;;;;;2090149;28;1344;-55
2021/01/07 02:49:00;;;;;;;;;;;11.80;68.80;;;;;;2087265;28;1906;-54
2021/01/07 02:50:19;;;;;;;;;;;11.80;68.80;;;;;;2084388;28;1238;-53
2021/01/07 02:51:39;;;;;;;;;;;11.80;68.60;;;;;;2072941;28;1051;-54
2021/01/07 02:52:59;;;;;;;;;;;11.80;68.70;;;;;;2087738;28;1327;-54
2021/01/07 02:54:21;;;;;;;;;;;11.80;68.60;;;;;;2081594;28;1044;-53
2021/01/07 02:55:42;;;;;;;;;;;11.80;68.80;;;;;;2088056;28;1285;-54
2021/01/07 02:57:02;;;;;;;;;;;11.80;68.80;;;;;;2089521;28;1705;-54
2021/01/07 02:58:22;;;;;;;;;;;11.80;68.70;;;;;;2087122;28;1349;-54
2021/01/07 02:59:41;;;;;;;;;;;11.80;68.80;;;;;;2090007;28;1173;-53
2021/01/07 03:01:00;;;;;;;;;;;11.80;68.80;;;;;;2088161;28;1326;-53
2021/01/07 03:02:19;;;;;;;;;;;11.80;69.00;;;;;;2090526;28;1196;-53
2021/01/07 03:03:38;;;;;;;;;;;11.70;69.00;;;;;;2088117;28;1095;-53
2021/01/07 03:04:57;;;;;;;;;;;11.80;69.00;;;;;;2080333;28;1282;-53
2021/01/07 03:06:16;;;;;;;;;;;11.80;69.70;;;;;;2089178;28;1127;-53
2021/01/07 03:07:36;;;;;;;;;;;11.70;69.80;;;;;;2092977;28;1438;-53
2021/01/07 03:08:55;;;;;;;;;;;11.70;69.00;;;;;;2095845;28;1918;-54
2021/01/07 03:10:14;;;;;;;;;;;11.70;68.80;;;;;;2090805;28;1338;-53
2021/01/07 03:11:33;;;;;;;;;;;11.70;69.10;;;;;;2086055;28;1456;-54
2021/01/07 03:12:53;;;;;;;;;;;11.70;68.90;;;;;;2089651;28;1293;-53
2021/01/07 03:14:12;;;;;;;;;;;11.70;69.20;;;;;;2083364;28;2012;-53
2021/01/07 03:15:31;;;;;;;;;;;11.70;69.30;;;;;;2078414;28;1199;-53
2021/01/07 03:16:51;;;;;;;;;;;11.70;69.20;;;;;;2080872;28;1058;-54
2021/01/07 03:18:10;;;;;;;;;;;11.70;69.10;;;;;;2088272;28;1492;-54
2021/01/07 03:19:29;;;;;;;;;;;11.70;69.30;;;;;;2087095;28;1387;-53
2021/01/07 03:20:48;;;;;;;;;;;11.70;69.50;;;;;;2081209;28;1166;-53
2021/01/07 03:22:07;;;;;;;;;;;11.70;69.20;;;;;;2081486;28;1121;-53
2021/01/07 03:23:27;;;;;;;;;;;11.70;69.20;;;;;;2086970;28;1236;-53
2021/01/07 03:24:46;;;;;;;;;;;11.70;70.20;;;;;;2089178;28;1347;-54
2021/01/07 03:26:05;;;;;;;;;;;11.70;69.50;;;;;;2087666;28;1390;-54
2021/01/07 03:27:24;;;;;;;;;;;11.70;69.60;;;;;;2089771;28;1321;-54
2021/01/07 03:28:44;;;;;;;;;;;11.60;69.50;;;;;;2087524;28;1910;-53
2021/01/07 03:30:06;;;;;;;;;;;11.70;69.50;;;;;;2081592;28;1754;-54
2021/01/07 03:31:25;;;;;;;;;;;11.60;69.50;;;;;;2078785;28;1242;-52
2021/01/07 03:32:44;;;;;;;;;;;11.60;69.60;;;;;;2084983;28;1265;-54
2021/01/07 03:34:04;;;;;;;;;;;11.70;69.60;;;;;;2090880;28;1264;-55
2021/01/07 03:35:23;;;;;;;;;;;11.70;69.60;;;;;;2090507;28;1251;-53
2021/01/07 03:36:42;;;;;;;;;;;11.60;69.50;;;;;;2093408;28;1249;-52
2021/01/07 03:38:01;;;;;;;;;;;11.60;69.70;;;;;;2090956;28;1399;-51
2021/01/07 03:39:20;;;;;;;;;;;11.60;70.50;;;;;;2096236;28;1036;-55
2021/01/07 03:40:39;;;;;;;;;;;11.60;70.40;;;;;;2096941;28;1283;-53
2021/01/07 03:41:59;;;;;;;;;;;11.60;69.70;;;;;;2087744;28;1064;-53
2021/01/07 03:43:18;;;;;;;;;;;11.60;69.80;;;;;;2089057;28;1130;-53
2021/01/07 03:44:37;;;;;;;;;;;11.60;69.90;;;;;;2096069;28;1106;-54
2021/01/07 03:45:56;;;;;;;;;;;11.60;69.90;;;;;;2093740;28;1156;-53
2021/01/07 03:47:15;;;;;;;;;;;11.60;70.10;;;;;;2095213;28;1133;-53
2021/01/07 03:48:34;;;;;;;;;;;11.60;70.00;;;;;;2096143;28;1293;-53
2021/01/07 03:49:54;;;;;;;;;;;11.60;69.90;;;;;;2102324;28;1408;-53
2021/01/07 03:51:13;;;;;;;;;;;11.60;70.10;;;;;;2097013;28;1140;-53
2021/01/07 03:52:32;;;;;;;;;;;11.60;70.10;;;;;;2097267;28;1288;-53
2021/01/07 03:53:51;;;;;;;;;;;11.60;70.10;;;;;;2083699;28;1266;-54
2021/01/07 03:55:11;;;;;;;;;;;11.50;70.00;;;;;;2087898;28;1157;-53
2021/01/07 03:56:30;;;;;;;;;;;11.60;70.20;;;;;;2093745;28;1156;-53
2021/01/07 03:57:49;;;;;;;;;;;11.60;70.30;;;;;;2092251;28;1499;-54
2021/01/07 03:59:08;;;;;;;;;;;11.50;70.00;;;;;;2086592;28;1180;-53
2021/01/07 04:00:27;;;;;;;;;;;11.50;71.00;;;;;;2089014;28;1172;-54
2021/01/07 04:01:46;;;;;;;;;;;11.50;70.30;;;;;;2095318;28;1330;-54
2021/01/07 04:03:06;;;;;;;;;;;11.50;70.10;;;;;;2096147;28;1365;-54
2021/01/07 04:04:25;;;;;;;;;;;11.50;70.30;;;;;;2097230;28;1349;-53
2021/01/07 04:05:45;;;;;;;;;;;11.50;70.50;;;;;;2096378;28;1228;-53
2021/01/07 04:07:04;;;;;;;;;;;11.50;70.40;;;;;;2096706;28;1385;-52
2021/01/07 04:08:23;;;;;;;;;;;11.50;70.50;;;;;;2096794;28;1466;-54
2021/01/07 04:09:43;;;;;;;;;;;11.50;70.50;;;;;;2083650;28;1975;-53
2021/01/07 04:11:02;;;;;;;;;;;11.50;70.60;;;;;;2080709;28;1183;-53
2021/01/07 04:12:21;;;;;;;;;;;11.50;70.70;;;;;;2077565;28;1226;-53
2021/01/07 04:13:40;;;;;;;;;;;11.50;70.90;;;;;;2077167;28;1168;-53
2021/01/07 04:15:00;;;;;;;;;;;11.50;70.70;;;;;;2087968;28;1220;-53
2021/01/07 04:16:19;;;;;;;;;;;11.50;70.80;;;;;;2080314;28;2174;-53
2021/01/07 04:17:38;;;;;;;;;;;11.50;71.60;;;;;;2079509;28;1439;-54
2021/01/07 04:18:58;;;;;;;;;;;11.50;71.70;;;;;;2087008;28;1394;-53
2021/01/07 04:20:17;;;;;;;;;;;11.50;71.20;;;;;;2085236;28;1250;-54
2021/01/07 04:21:45;;;;;;;;;;;11.50;71.20;;;;;;2087840;28;1423;-53
2021/01/07 04:23:04;;;;;;;;;;;11.50;71.30;;;;;;2095838;28;1323;-54
2021/01/07 04:24:23;;;;;;;;;;;11.40;71.40;;;;;;2096974;28;1261;-54
2021/01/07 04:25:42;;;;;;;;;;;11.40;71.40;;;;;;2101062;28;1312;-53
2021/01/07 04:27:02;;;;;;;;;;;11.40;72.10;;;;;;2099166;28;1382;-54
2021/01/07 04:28:21;;;;;;;;;;;11.40;71.40;;;;;;2095473;28;1640;-54
2021/01/07 04:29:43;;;;;;;;;;;11.40;71.50;;;;;;2087433;28;1906;-53
2021/01/07 04:31:02;;;;;;;;;;;11.40;71.60;;;;;;2092923;28;1418;-52
2021/01/07 04:32:21;;;;;;;;;;;11.40;71.70;;;;;;2104555;28;1175;-53
2021/01/07 04:33:40;;;;;;;;;;;11.40;71.80;;;;;;2095298;28;1160;-52
2021/01/07 04:35:00;;;;;;;;;;;11.40;71.60;;;;;;2086555;28;1235;-54
2021/01/07 04:36:19;;;;;;;;;;;11.40;71.70;;;;;;2087878;28;1302;-53
2021/01/07 04:37:38;;;;;;;;;;;11.40;71.80;;;;;;2090091;28;1321;-55
2021/01/07 04:38:57;;;;;;;;;;;11.40;71.90;;;;;;2104694;28;1422;-54
2021/01/07 04:40:16;;;;;;;;;;;11.40;72.60;;;;;;2099833;28;1191;-53
2021/01/07 04:41:35;;;;;;;;;;;11.40;72.70;;;;;;2080313;28;1094;-51
2021/01/07 04:42:54;;;;;;;;;;;11.40;72.10;;;;;;2093320;28;1421;-53
2021/01/07 04:44:14;;;;;;;;;;;11.40;72.10;;;;;;2092032;28;1121;-53
2021/01/07 04:45:33;;;;;;;;;;;11.40;72.20;;;;;;2077761;28;1253;-53
2021/01/07 04:46:52;;;;;;;;;;;11.40;72.20;;;;;;2081724;28;1297;-54
2021/01/07 04:48:11;;;;;;;;;;;11.40;72.40;;;;;;2089021;28;1467;-52
2021/01/07 04:49:31;;;;;;;;;;;11.40;72.40;;;;;;2076559;28;1903;-52
2021/01/07 04:50:50;;;;;;;;;;;11.30;72.40;;;;;;2088719;28;1060;-53
2021/01/07 04:52:09;;;;;;;;;;;11.30;72.20;;;;;;2092686;28;939;-52
2021/01/07 04:53:28;;;;;;;;;;;11.30;72.30;;;;;;2092796;28;797;-53
2021/01/07 04:54:50;;;;;;;;;;;11.30;72.30;;;;;;2091407;28;724;-54
2021/01/07 04:56:09;;;;;;;;;;;11.30;73.00;;;;;;2088494;28;998;-51
2021/01/07 04:57:29;;;;;;;;;;;11.30;73.60;;;;;;2082395;28;1895;-52
2021/01/07 04:58:48;;;;;;;;;;;11.40;74.20;;;;;;2089202;28;734;-54
2021/01/07 05:00:08;;;;;;;;;;;11.40;73.20;;;;;;2088576;28;1630;-53
2021/01/07 05:01:27;;;;;;;;;;;11.40;73.10;;;;;;2087918;28;1425;-51
2021/01/07 05:02:46;;;;;;;;;;;11.40;72.70;;;;;;2092434;28;1271;-52
2021/01/07 05:04:05;;;;;;;;;;;11.40;72.30;;;;;;2092935;28;1295;-53
2021/01/07 05:05:25;;;;;;;;;;;11.40;72.50;;;;;;2076314;28;1156;-52
2021/01/07 05:06:44;;;;;;;;;;;11.30;72.50;;;;;;2079888;28;1052;-52
2021/01/07 05:08:04;;;;;;;;;;;11.30;72.60;;;;;;2091307;28;1445;-52
2021/01/07 05:09:23;;;;;;;;;;;11.30;72.70;;;;;;2090705;28;1973;-52
2021/01/07 05:10:48;;;;;;;;;;;11.30;72.80;;;;;;2080483;28;1146;-52
2021/01/07 05:12:08;;;;;;;;;;;11.30;72.90;;;;;;2079270;28;1350;-52
2021/01/07 05:13:27;;;;;;;;;;;11.30;73.20;;;;;;2086135;28;1207;-52
2021/01/07 05:14:46;;;;;;;;;;;11.30;73.00;;;;;;2087487;28;1295;-53
2021/01/07 05:16:05;;;;;;;;;;;11.30;73.00;;;;;;2091232;28;1404;-52
2021/01/07 05:17:24;;;;;;;;;;;11.30;73.30;;;;;;2089457;28;1142;-54
2021/01/07 05:18:44;;;;;;;;;;;11.30;73.40;;;;;;2089509;28;1254;-51
2021/01/07 05:20:10;;;;;;;;;;;11.30;73.30;;;;;;2088158;28;1252;-54
2021/01/07 05:21:29;;;;;;;;;;;11.30;73.20;;;;;;2089800;28;1352;-54
2021/01/07 05:22:48;;;;;;;;;;;11.30;73.50;;;;;;2089487;28;1403;-52
2021/01/07 05:24:07;;;;;;;;;;;11.30;73.30;;;;;;2079798;28;1397;-51
2021/01/07 05:25:29;;;;;;;;;;;11.30;73.50;;;;;;2071812;28;1163;-53
2021/01/07 05:26:48;;;;;;;;;;;11.30;73.50;;;;;;2073729;28;1381;-52
2021/01/07 05:28:08;;;;;;;;;;;11.30;73.70;;;;;;2071372;28;1437;-52
2021/01/07 05:29:27;;;;;;;;;;;11.30;73.90;;;;;;2083181;28;1910;-54
2021/01/07 05:30:46;;;;;;;;;;;11.30;73.80;;;;;;2089614;28;1266;-52
2021/01/07 05:32:06;;;;;;;;;;;11.20;73.80;;;;;;2079855;28;1147;-52
2021/01/07 05:33:26;;;;;;;;;;;11.20;73.60;;;;;;2085617;28;1224;-51
2021/01/07 05:34:50;;;;;;;;;;;11.20;73.70;;;;;;2080024;28;1440;-54
2021/01/07 05:36:36;;;;;;;;;;;11.20;73.90;;;;;;2086407;28;1371;-53
2021/01/07 05:37:56;;;;;;;;;;;11.20;73.80;;;;;;2090096;28;1511;-54
2021/01/07 05:39:15;;;;;;;;;;;11.20;73.90;;;;;;2089033;28;1305;-54
2021/01/07 05:40:35;;;;;;;;;;;11.20;74.00;;;;;;2088190;28;1177;-52
2021/01/07 05:41:54;;;;;;;;;;;11.20;73.80;;;;;;2089434;28;1283;-51
2021/01/07 05:43:13;;;;;;;;;;;11.20;74.20;;;;;;2080804;28;1144;-52
2021/01/07 05:44:32;;;;;;;;;;;11.20;74.00;;;;;;2077754;28;1173;-52
2021/01/07 05:45:55;;;;;;;;;;;11.20;74.10;;;;;;2087470;28;1301;-52
2021/01/07 05:47:28;;;;;;;;;;;11.20;74.30;;;;;;2080574;28;1450;-52
2021/01/07 05:48:47;;;;;;;;;;;11.20;74.10;;;;;;2089781;28;1461;-53
2021/01/07 05:50:06;;;;;;;;;;;11.20;74.20;;;;;;2079135;28;1415;-53
2021/01/07 05:51:26;;;;;;;;;;;11.20;74.60;;;;;;2076488;28;1179;-52
2021/01/07 05:52:48;;;;;;;;;;;11.20;74.20;;;;;;2085577;28;1127;-52
2021/01/07 05:54:07;;;;;;;;;;;11.20;74.10;;;;;;2087616;28;1036;-53
2021/01/07 05:55:26;;;;;;;;;;;11.20;74.30;;;;;;2079141;28;1398;-52
2021/01/07 05:56:46;;;;;;;;;;;11.20;74.30;;;;;;2094993;28;1860;-52
2021/01/07 05:58:05;;;;;;;;;;;11.20;74.40;;;;;;2073606;28;1443;-55
2021/01/07 05:59:24;;;;;;;;;;;11.20;74.40;;;;;;2060687;28;1312;-54
2021/01/07 06:00:43;;;;;;;;;;;11.20;74.50;;;;;;2080997;28;1348;-52
2021/01/07 06:02:03;;;;;;;;;;;11.20;74.30;;;;;;2088896;28;1467;-53
2021/01/07 06:03:23;;;;;;;;;;;11.20;75.00;;;;;;2093324;28;1204;-54
2021/01/07 06:04:47;;;;;;;;;;;11.10;74.30;;;;;;2089051;28;1112;-55
2021/01/07 06:06:06;;;;;;;;;;;11.20;74.30;;;;;;2088039;28;1144;-52
2021/01/07 06:07:25;;;;;;;;;;;11.20;74.50;;;;;;2080676;28;1441;-53
2021/01/07 06:08:48;;;;;;;;;;;11.20;74.30;;;;;;2086119;28;1401;-51
2021/01/07 06:10:10;;;;;;;;;;;11.10;74.20;;;;;;2079611;28;1197;-51
2021/01/07 06:11:29;;;;;;;;;;;11.10;74.80;;;;;;2079783;28;1432;-55
2021/01/07 06:12:49;;;;;;;;;;;11.20;74.50;;;;;;2092479;28;1495;-56
2021/01/07 06:14:08;;;;;;;;;;;11.20;75.00;;;;;;2083976;28;1176;-51
2021/01/07 06:15:27;;;;;;;;;;;11.20;75.20;;;;;;2084967;28;1238;-54
2021/01/07 06:16:46;;;;;;;;;;;11.20;74.80;;;;;;2089632;28;1427;-58
2021/01/07 06:18:06;;;;;;;;;;;11.20;74.10;;;;;;2089167;28;1498;-56
2021/01/07 06:19:44;;;;;;;;;;;11.20;73.70;;;;;;2080539;28;1201;-52
2021/01/07 06:21:03;;;;;;;;;;;11.20;73.80;;;;;;2094709;28;1330;-53
2021/01/07 06:22:23;;;;;;;;;;;11.10;74.60;;;;;;2083894;28;1155;-52
2021/01/07 06:23:45;;;;;;;;;;;11.20;74.80;;;;;;2079971;28;1274;-54
2021/01/07 06:25:08;;;;;;;;;;;11.10;75.00;;;;;;2083993;28;1397;-54
2021/01/07 06:26:27;;;;;;;;;;;11.10;74.80;;;;;;2089612;28;1166;-55
2021/01/07 06:27:47;;;;;;;;;;;11.10;75.20;;;;;;2089010;28;1385;-57
2021/01/07 06:29:06;;;;;;;;;;;11.10;75.00;;;;;;2089361;28;1902;-54
2021/01/07 06:30:25;;;;;;;;;;;11.10;75.60;;;;;;2071791;28;1308;-54
2021/01/07 06:31:45;;;;;;;;;;;11.10;75.90;;;;;;2084472;28;1405;-53
2021/01/07 06:33:08;;;;;;;;;;;11.10;75.00;;;;;;2087307;28;1320;-53
2021/01/07 06:34:27;;;;;;;;;;;11.10;75.00;;;;;;2082410;28;1319;-53
2021/01/07 06:35:46;;;;;;;;;;;11.10;75.10;;;;;;2080500;28;1308;-54
2021/01/07 06:37:06;;;;;;;;;;;11.10;75.10;;;;;;2086189;28;1379;-54
2021/01/07 06:38:26;;;;;;;;;;;11.10;75.20;;;;;;2080969;28;1354;-53
2021/01/07 06:39:45;;;;;;;;;;;11.10;75.20;;;;;;2085570;28;1273;-56
2021/01/07 06:41:04;;;;;;;;;;;11.10;74.90;;;;;;2070631;28;1237;-55
2021/01/07 06:42:23;;;;;;;;;;;11.10;75.20;;;;;;2082777;28;1242;-53
2021/01/07 06:43:42;;;;;;;;;;;11.10;75.20;;;;;;2091107;28;1261;-54
2021/01/07 06:45:02;;;;;;;;;;;11.10;75.40;;;;;;2080165;28;1173;-54
2021/01/07 06:46:40;;;;;;;;;;;11.10;75.20;;;;;;2086733;28;1280;-54
2021/01/07 06:47:59;;;;;;;;;;;11.10;75.30;;;;;;2088822;28;1499;-52
2021/01/07 06:49:28;;;;;;;;;;;11.00;75.30;;;;;;2079783;28;2000;-54
2021/01/07 06:50:49;;;;;;;;;;;11.00;75.10;;;;;;2079166;28;1281;-54
2021/01/07 06:52:08;;;;;;;;;;;11.00;75.00;;;;;;2082414;28;1306;-53
2021/01/07 06:53:27;;;;;;;;;;;11.00;75.00;;;;;;2081717;28;958;-53
2021/01/07 06:54:46;;;;;;;;;;;11.00;75.00;;;;;;2087248;28;1413;-54
2021/01/07 06:56:18;;;;;;;;;;;11.00;75.10;;;;;;2091054;28;1335;-55
2021/01/07 06:57:47;;;;;;;;;;;11.00;75.20;;;;;;2091342;28;1399;-55
2021/01/07 06:59:07;;;;;;;;;;;11.00;75.00;;;;;;2082671;28;1286;-55
2021/01/07 07:00:26;;;;;;;;;;;11.00;74.70;;;;;;2089026;28;1405;-52
2021/01/07 07:01:46;;;;;;;;;;;11.00;74.80;;;;;;2090763;28;1180;-54
2021/01/07 07:03:12;;;;;;;;;;;11.00;75.00;;;;;;2091215;28;1422;-53
2021/01/07 07:04:31;;;;;;;;;;;11.00;74.80;;;;;;2090841;28;1026;-55
2021/01/07 07:05:53;;;;;;;;;;;11.00;74.50;;;;;;2080715;28;1239;-56
2021/01/07 07:07:15;;;;;;;;;;;11.00;75.00;;;;;;2078292;28;1415;-55
2021/01/07 07:08:34;;;;;;;;;;;11.00;74.30;;;;;;2088874;28;1279;-55
2021/01/07 07:10:14;;;;;;;;;;;11.00;74.40;;;;;;2082237;28;1315;-54
2021/01/07 07:11:33;;;;;;;;;;;11.10;74.30;;;;;;2088389;28;1869;-56
2021/01/07 07:12:52;;;;;;;;;;;11.10;74.30;;;;;;2077051;28;1108;-58
2021/01/07 07:14:11;;;;;;;;;;;11.10;75.10;;;;;;2079362;28;1050;-54
2021/01/07 07:15:30;;;;;;;;;;;11.10;76.10;;;;;;2078303;28;1136;-57
2021/01/07 07:16:50;;;;;;;;;;;11.20;76.20;;;;;;2087059;28;1452;-51
2021/01/07 07:18:10;;;;;;;;;;;11.20;76.30;;;;;;2082873;28;1389;-51
2021/01/07 07:19:29;;;;;;;;;;;11.20;75.80;;;;;;2080843;28;961;-53
2021/01/07 07:20:48;;;;;;;;;;;11.20;75.00;;;;;;2086644;28;1376;-52
2021/01/07 07:22:09;;;;;;;;;;;11.20;74.50;;;;;;2079043;28;1127;-52
2021/01/07 07:23:29;;;;;;;;;;;11.20;75.00;;;;;;2087681;28;1355;-54
2021/01/07 07:24:50;;;;;;;;;;;11.20;74.40;;;;;;2079439;28;1474;-52
2021/01/07 07:26:10;;;;;;;;;;;11.20;74.30;;;;;;2081518;28;1326;-54
2021/01/07 07:27:36;;;;;;;;;;;11.20;74.90;;;;;;2089819;28;1348;-54
2021/01/07 07:28:56;;;;;;;;;;;11.20;74.30;;;;;;2082380;28;1938;-55
2021/01/07 07:30:26;;;;;;;;;;;11.20;74.30;;;;;;2076905;28;1342;-54
2021/01/07 07:31:46;;;;;;;;;;;11.10;74.20;;;;;;2078082;28;1208;-52
2021/01/07 07:33:05;;;;;;;;;;;11.10;74.20;;;;;;2073494;28;1274;-54
2021/01/07 07:34:29;;;;;;;;;;;11.20;74.40;;;;;;2083825;28;1277;-55
2021/01/07 07:35:48;;;;;;;;;;;11.10;74.60;;;;;;2083212;28;1121;-51
2021/01/07 07:37:16;;;;;;;;;;;11.10;75.10;;;;;;2078691;28;1260;-56
2021/01/07 07:38:39;;;;;;;;;;;11.10;75.00;;;;;;2085661;28;1294;-54
2021/01/07 07:40:01;;;;;;;;;;;11.10;74.40;;;;;;2081819;28;1378;-53
2021/01/07 07:41:21;;;;;;;;;;;11.10;74.40;;;;;;2087442;28;1269;-53
2021/01/07 07:42:41;;;;;;;;;;;11.10;74.30;;;;;;2073913;28;1181;-54
2021/01/07 07:44:00;;;;;;;;;;;11.10;74.40;;;;;;2074581;28;1501;-51
2021/01/07 07:45:22;;;;;;;;;;;11.10;74.40;;;;;;2078742;28;1200;-57
2021/01/07 07:46:42;;;;;;;;;;;11.10;74.50;;;;;;2085203;28;1190;-55
2021/01/07 07:48:01;;;;;;;;;;;11.10;74.40;;;;;;2081382;28;1532;-56
2021/01/07 07:49:23;;;;;;;;;;;11.10;75.00;;;;;;2077975;28;1910;-56
2021/01/07 07:50:42;;;;;;;;;;;11.10;74.40;;;;;;2070930;28;1367;-52
2021/01/07 07:52:01;;;;;;;;;;;11.10;74.40;;;;;;2084128;28;1435;-54
2021/01/07 07:53:20;;;;;;;;;;;11.10;74.50;;;;;;2093302;28;1126;-53
2021/01/07 07:54:41;;;;;;;;;;;11.10;74.40;;;;;;2081557;28;1184;-54